Time;durP1;ratioP1;P1;durP2;ratioP2;P2;SDS_P1;SDS_P2;PMS_P1;PMS_P2;Temp;Humidity;BMP_temperature;BMP_pressure;BME280_temperature;BME280_humidity;BME280_pressure;Samples;Min_cycle;Max_cycle;Signal;HPM_P1;HPM_P2
2022/02/04 00:09:04;;;;;;;;;;;13.70;99.90;;;;;;5023918;28;896;-54
2022/02/04 00:24:50;;;;;;;;;;;13.60;99.90;;;;;;4933723;28;953;-47
2022/02/04 00:27:20;;;;;;;;;;;13.60;99.90;;;;;;4979608;28;1130;-54
2022/02/04 00:32:19;;;;;;;;;;;13.50;99.90;;;;;;4978083;28;921;-54
2022/02/04 00:34:51;;;;;;;;;;;13.50;99.90;;;;;;4977280;28;932;-54
2022/02/04 00:40:12;;;;;;;;;;;13.50;99.90;;;;;;4977664;28;1000;-46
2022/02/04 00:42:39;;;;;;;;;;;13.50;99.90;;;;;;4961417;28;896;-47
2022/02/04 00:45:33;;;;;;;;;;;13.50;99.90;;;;;;4945364;28;1368;-46
2022/02/04 00:48:00;;;;;;;;;;;13.50;99.90;;;;;;4952896;28;1526;-46
2022/02/04 00:50:34;;;;;;;;;;;13.50;99.90;;;;;;4959513;28;1966;-46
2022/02/04 00:53:15;;;;;;;;;;;13.50;99.90;;;;;;4970971;28;930;-46
2022/02/04 00:56:05;;;;;;;;;;;13.50;99.90;;;;;;5001589;28;1191;-46
2022/02/04 01:26:15;;;;;;;;;;;13.30;99.90;;;;;;5058016;28;1609;-55
2022/02/04 01:28:43;;;;;;;;;;;13.30;99.90;;;;;;5053447;28;956;-54
2022/02/04 01:31:12;;;;;;;;;;;13.30;99.90;;;;;;5076511;28;1914;-54
2022/02/04 01:33:39;;;;;;;;;;;13.30;99.90;;;;;;5070146;28;1248;-46
2022/02/04 01:36:06;;;;;;;;;;;13.30;99.90;;;;;;5021479;28;950;-46
2022/02/04 01:38:33;;;;;;;;;;;13.30;99.90;;;;;;5076889;28;1042;-46
2022/02/04 01:41:00;;;;;;;;;;;13.30;99.90;;;;;;5058832;28;999;-46
2022/02/04 01:43:28;;;;;;;;;;;13.30;99.90;;;;;;5058817;28;882;-46
2022/02/04 01:46:13;;;;;;;;;;;13.30;99.90;;;;;;5076846;28;801;-54
2022/02/04 01:48:41;;;;;;;;;;;13.20;99.90;;;;;;5060582;28;1103;-54
2022/02/04 01:51:11;;;;;;;;;;;13.20;99.90;;;;;;5058149;28;1892;-54
2022/02/04 01:53:42;;;;;;;;;;;13.20;99.90;;;;;;5039107;28;926;-54
2022/02/04 01:56:11;;;;;;;;;;;13.20;99.90;;;;;;5058177;28;873;-54
2022/02/04 01:58:56;;;;;;;;;;;13.20;99.90;;;;;;5058435;28;758;-54
2022/02/04 02:01:22;;;;;;;;;;;13.20;99.90;;;;;;5056361;28;898;-54
2022/02/04 02:03:48;;;;;;;;;;;13.20;99.90;;;;;;5058041;28;1015;-54
2022/02/04 02:06:35;;;;;;;;;;;13.20;99.90;;;;;;5057857;28;818;-54
2022/02/04 02:09:01;;;;;;;;;;;13.10;99.90;;;;;;5057657;28;1100;-54
2022/02/04 02:11:28;;;;;;;;;;;13.10;99.90;;;;;;5075979;28;1902;-54
2022/02/04 02:13:55;;;;;;;;;;;13.10;99.90;;;;;;5041831;28;923;-54
2022/02/04 02:44:10;;;;;;;;;;;13.00;99.90;;;;;;5016343;28;798;-54
2022/02/04 02:55:31;;;;;;;;;;;13.00;99.90;;;;;;5034016;28;795;-54
2022/02/04 03:00:44;;;;;;;;;;;13.00;99.90;;;;;;5014731;28;1061;-54
2022/02/04 03:03:13;;;;;;;;;;;13.00;99.90;;;;;;5015587;28;1088;-54
2022/02/04 03:05:39;;;;;;;;;;;12.90;99.90;;;;;;5014718;28;1084;-54
2022/02/04 03:08:05;;;;;;;;;;;12.90;99.90;;;;;;5014231;28;1041;-54
2022/02/04 03:10:35;;;;;;;;;;;12.90;99.90;;;;;;5033714;28;1902;-54
2022/02/04 03:13:03;;;;;;;;;;;12.90;99.90;;;;;;5028626;28;1361;-46
2022/02/04 03:15:29;;;;;;;;;;;12.90;99.90;;;;;;5033747;28;803;-46
2022/02/04 03:18:02;;;;;;;;;;;12.90;99.90;;;;;;5025629;28;1092;-47
2022/02/04 03:20:29;;;;;;;;;;;12.90;99.90;;;;;;5015136;28;1018;-46
2022/02/04 03:22:58;;;;;;;;;;;12.90;99.90;;;;;;5014724;28;949;-46
2022/02/04 03:25:25;;;;;;;;;;;12.90;99.90;;;;;;5014554;28;967;-47
2022/02/04 03:27:58;;;;;;;;;;;12.80;99.90;;;;;;5014528;28;1021;-46
2022/02/04 03:30:32;;;;;;;;;;;12.90;99.90;;;;;;5015839;28;1964;-47
2022/02/04 03:33:02;;;;;;;;;;;12.80;99.90;;;;;;5036749;28;868;-46
2022/02/04 03:35:28;;;;;;;;;;;12.90;99.90;;;;;;5036911;28;832;-46
2022/02/04 03:37:55;;;;;;;;;;;12.90;99.90;;;;;;5036607;28;1073;-46
2022/02/04 03:40:23;;;;;;;;;;;12.80;99.90;;;;;;5036512;28;809;-47
2022/02/04 03:42:51;;;;;;;;;;;12.80;99.90;;;;;;5036543;28;1134;-46
2022/02/04 03:45:18;;;;;;;;;;;12.80;99.90;;;;;;5037792;28;929;-46
2022/02/04 03:47:45;;;;;;;;;;;12.80;99.90;;;;;;5035513;28;1044;-47
2022/02/04 03:50:11;;;;;;;;;;;12.80;99.90;;;;;;5034783;28;1906;-47
2022/02/04 03:52:39;;;;;;;;;;;12.80;99.90;;;;;;5058610;28;773;-46
2022/02/04 03:55:06;;;;;;;;;;;12.80;99.90;;;;;;5058877;28;1585;-46
2022/02/04 03:57:33;;;;;;;;;;;12.80;99.90;;;;;;5058812;28;818;-46
2022/02/04 04:00:05;;;;;;;;;;;12.80;99.90;;;;;;5059166;28;1102;-46
2022/02/04 04:02:32;;;;;;;;;;;12.80;99.90;;;;;;5034707;28;783;-47
2022/02/04 04:04:59;;;;;;;;;;;12.80;99.90;;;;;;5041687;28;983;-47
2022/02/04 04:07:28;;;;;;;;;;;12.80;99.90;;;;;;5040196;28;798;-46
2022/02/04 04:10:01;;;;;;;;;;;12.80;99.90;;;;;;5031988;28;1979;-47
2022/02/04 04:12:28;;;;;;;;;;;12.70;99.90;;;;;;5039991;28;902;-47
2022/02/04 04:14:56;;;;;;;;;;;12.70;99.90;;;;;;5022352;28;936;-47
2022/02/04 04:17:23;;;;;;;;;;;12.70;99.90;;;;;;5017506;28;1233;-47
2022/02/04 04:19:50;;;;;;;;;;;12.70;99.90;;;;;;5042683;28;1195;-46
2022/02/04 04:22:39;;;;;;;;;;;12.70;99.90;;;;;;5057148;28;741;-46
2022/02/04 04:25:08;;;;;;;;;;;12.70;99.90;;;;;;5041842;28;895;-46
2022/02/04 04:27:35;;;;;;;;;;;12.70;99.90;;;;;;5025626;28;813;-46
2022/02/04 04:30:04;;;;;;;;;;;12.70;99.90;;;;;;5059848;28;1910;-47
2022/02/04 04:32:39;;;;;;;;;;;12.70;99.90;;;;;;5025445;28;938;-46
2022/02/04 04:35:08;;;;;;;;;;;12.70;99.90;;;;;;5059301;28;909;-46
2022/02/04 04:37:36;;;;;;;;;;;12.70;99.90;;;;;;5059588;28;771;-47
2022/02/04 04:43:23;;;;;;;;;;;12.70;99.90;;;;;;4998708;28;1144;-46
2022/02/04 05:29:55;;;;;;;;;;;12.50;99.90;;;;;;5018564;28;1973;-55
2022/02/04 05:32:22;;;;;;;;;;;12.60;99.90;;;;;;5018150;28;893;-55
2022/02/04 05:34:50;;;;;;;;;;;12.50;99.90;;;;;;5000590;28;881;-54
2022/02/04 05:37:20;;;;;;;;;;;12.50;99.90;;;;;;4996898;28;913;-55
2022/02/04 05:42:34;;;;;;;;;;;12.50;99.90;;;;;;4997033;28;870;-47
2022/02/04 05:45:13;;;;;;;;;;;12.50;99.90;;;;;;4997288;28;870;-54
2022/02/04 05:47:39;;;;;;;;;;;12.50;99.90;;;;;;4997262;28;820;-55
2022/02/04 05:53:06;;;;;;;;;;;12.50;99.90;;;;;;5002348;28;1070;-54
2022/02/04 05:55:48;;;;;;;;;;;12.50;99.90;;;;;;4997685;28;966;-54
2022/02/04 06:01:26;;;;;;;;;;;12.50;99.90;;;;;;4968424;28;1154;-54
2022/02/04 06:12:41;;;;;;;;;;;12.60;99.90;;;;;;4995457;28;1914;-46
2022/02/04 06:23:25;;;;;;;;;;;12.80;99.90;;;;;;5009527;28;962;-47
2022/02/04 06:25:52;;;;;;;;;;;12.90;99.90;;;;;;4996432;28;1091;-47
2022/02/04 06:28:25;;;;;;;;;;;12.90;99.90;;;;;;4964421;28;845;-54
2022/02/04 06:30:52;;;;;;;;;;;13.00;99.90;;;;;;5011549;28;1971;-47
2022/02/04 06:33:20;;;;;;;;;;;13.00;99.90;;;;;;4996358;28;887;-46
2022/02/04 06:35:47;;;;;;;;;;;13.10;99.90;;;;;;4996708;28;895;-47
2022/02/04 06:38:12;;;;;;;;;;;13.20;99.90;;;;;;5015961;28;1039;-46
2022/02/04 06:40:39;;;;;;;;;;;13.30;99.90;;;;;;5037427;28;879;-47
2022/02/04 06:43:06;;;;;;;;;;;13.30;99.90;;;;;;5037623;28;876;-47
2022/02/04 06:45:33;;;;;;;;;;;13.40;99.90;;;;;;5036962;28;924;-47
2022/02/04 06:48:00;;;;;;;;;;;13.50;99.90;;;;;;5037274;28;869;-46
2022/02/04 06:50:27;;;;;;;;;;;13.60;99.90;;;;;;5031325;28;1964;-46
2022/02/04 06:52:54;;;;;;;;;;;13.60;99.90;;;;;;5036743;28;832;-46
2022/02/04 06:55:28;;;;;;;;;;;13.70;99.90;;;;;;5054417;28;1230;-51
2022/02/04 06:57:57;;;;;;;;;;;13.70;99.90;;;;;;5054875;28;848;-55
2022/02/04 07:00:29;;;;;;;;;;;13.80;99.90;;;;;;5054917;28;907;-54
2022/02/04 07:02:56;;;;;;;;;;;13.80;99.90;;;;;;5036833;28;902;-54
2022/02/04 07:05:23;;;;;;;;;;;13.90;99.90;;;;;;5036451;28;787;-55
2022/02/04 07:08:01;;;;;;;;;;;13.90;99.90;;;;;;5019145;28;1019;-55
2022/02/04 07:10:38;;;;;;;;;;;14.00;99.90;;;;;;5038601;28;1902;-55
2022/02/04 07:13:17;;;;;;;;;;;14.00;99.90;;;;;;5055332;28;761;-54
2022/02/04 07:15:53;;;;;;;;;;;14.10;99.90;;;;;;5026643;28;1027;-46
2022/02/04 07:21:07;;;;;;;;;;;14.20;99.90;;;;;;5046918;28;1085;-46
2022/02/04 07:23:35;;;;;;;;;;;14.20;99.90;;;;;;5056027;28;824;-54
2022/02/04 07:26:02;;;;;;;;;;;14.20;99.90;;;;;;5056293;28;898;-54
2022/02/04 07:28:31;;;;;;;;;;;14.30;99.90;;;;;;5056004;28;900;-54
2022/02/04 07:30:58;;;;;;;;;;;14.30;99.90;;;;;;5056087;28;1898;-54
2022/02/04 07:33:37;;;;;;;;;;;14.30;99.90;;;;;;5056704;28;857;-46
2022/02/04 07:40:52;;;;;;;;;;;14.40;99.90;;;;;;5045382;28;978;-55
2022/02/04 07:41:39;;;;;;;;;;;14.40;99.90;;;;;;5074000;28;1010;-54
2022/02/04 07:44:07;;;;;;;;;;;14.50;99.90;;;;;;5032742;28;950;-55
2022/02/04 07:46:35;;;;;;;;;;;14.50;99.90;;;;;;5056531;28;985;-55
2022/02/04 07:49:01;;;;;;;;;;;14.50;99.90;;;;;;5056736;28;813;-56
2022/02/04 07:51:27;;;;;;;;;;;14.60;99.90;;;;;;5056065;28;1898;-55
2022/02/04 07:53:54;;;;;;;;;;;14.60;99.90;;;;;;5038985;28;850;-55
2022/02/04 07:56:23;;;;;;;;;;;14.60;99.90;;;;;;5056414;28;763;-54
2022/02/04 07:59:06;;;;;;;;;;;14.60;99.90;;;;;;5037696;28;1049;-55
2022/02/04 08:01:33;;;;;;;;;;;14.60;99.90;;;;;;5056692;28;869;-55
2022/02/04 08:06:57;;;;;;;;;;;14.70;99.90;;;;;;5056421;28;762;-55
2022/02/04 08:18:05;;;;;;;;;;;14.80;99.90;;;;;;5015028;28;794;-47
2022/02/04 08:31:40;;;;;;;;;;;14.90;99.90;;;;;;4958334;28;1969;-55
2022/02/04 08:34:31;;;;;;;;;;;14.90;99.90;;;;;;4956242;29;968;-55
2022/02/04 08:50:30;;;;;;;;;;;15.00;99.90;;;;;;4958918;29;1907;-55
2022/02/04 08:58:38;;;;;;;;;;;15.00;99.90;;;;;;4945992;28;988;-55
2022/02/04 09:01:09;;;;;;;;;;;15.00;99.90;;;;;;4943664;29;1026;-55
2022/02/04 09:03:52;;;;;;;;;;;15.00;99.90;;;;;;4959464;28;1220;-55
2022/02/04 09:06:26;;;;;;;;;;;15.10;99.90;;;;;;5006984;28;955;-55
2022/02/04 09:09:13;;;;;;;;;;;15.10;99.90;;;;;;5033757;28;1040;-47
2022/02/04 09:11:43;;;;;;;;;;;15.20;99.90;;;;;;5035912;28;1902;-47
2022/02/04 09:17:05;;;;;;;;;;;15.20;99.90;;;;;;5035881;28;898;-46
2022/02/04 09:20:26;;;;;;;;;;;15.20;99.90;;;;;;5035501;28;1100;-47
2022/02/04 09:25:11;;;;;;;;;;;15.30;99.90;;;;;;5035650;28;779;-47
2022/02/04 09:27:40;;;;;;;;;;;15.30;99.90;;;;;;5035275;28;1186;-46
2022/02/04 09:30:11;;;;;;;;;;;15.30;99.90;;;;;;5035606;28;798;-46
2022/02/04 09:32:39;;;;;;;;;;;15.30;99.90;;;;;;5021526;28;1906;-47
2022/02/04 09:35:12;;;;;;;;;;;15.30;99.90;;;;;;5020534;28;954;-47
2022/02/04 09:37:38;;;;;;;;;;;15.30;99.90;;;;;;5039410;28;939;-47
2022/02/04 09:40:07;;;;;;;;;;;15.30;99.90;;;;;;5058421;28;965;-55
2022/02/04 09:42:33;;;;;;;;;;;15.30;99.90;;;;;;5019174;28;893;-55
2022/02/04 09:45:02;;;;;;;;;;;15.30;99.90;;;;;;5042310;28;1035;-55
2022/02/04 09:47:36;;;;;;;;;;;15.30;99.90;;;;;;5025372;28;919;-56
2022/02/04 09:50:12;;;;;;;;;;;15.20;99.90;;;;;;5023848;28;927;-47
2022/02/04 10:13:48;;;;;;;;;;;15.10;99.90;;;;;;5057953;28;1908;-46
2022/02/04 10:16:25;;;;;;;;;;;15.10;99.90;;;;;;5034647;28;1132;-46
2022/02/04 10:19:28;;;;;;;;;;;15.10;99.90;;;;;;5071708;28;909;-46
2022/02/04 10:21:56;;;;;;;;;;;15.10;99.90;;;;;;5075099;28;1191;-46
2022/02/04 10:24:27;;;;;;;;;;;15.10;99.90;;;;;;5075560;28;1023;-47
2022/02/04 10:27:13;;;;;;;;;;;15.10;99.90;;;;;;4982455;28;964;-46
2022/02/04 10:29:42;;;;;;;;;;;15.00;99.90;;;;;;5014621;28;880;-46
2022/02/04 10:32:09;;;;;;;;;;;15.10;99.90;;;;;;5014702;28;1910;-47
2022/02/04 10:34:38;;;;;;;;;;;15.10;99.90;;;;;;5014410;28;1123;-46
2022/02/04 10:37:24;;;;;;;;;;;15.10;99.90;;;;;;5014065;28;870;-47
2022/02/04 10:42:47;;;;;;;;;;;15.10;99.90;;;;;;4980054;28;930;-47
2022/02/04 10:54:11;;;;;;;;;;;15.10;99.90;;;;;;4995573;28;890;-55
2022/02/04 11:04:58;;;;;;;;;;;15.10;99.90;;;;;;4986765;28;902;-55
2022/02/04 11:10:19;;;;;;;;;;;15.10;99.90;;;;;;4995441;28;786;-55
2022/02/04 11:54:54;;;;;;;;;;;15.00;99.90;;;;;;4995410;28;894;-47
2022/02/04 11:57:30;;;;;;;;;;;15.10;99.90;;;;;;4978925;28;954;-46
2022/02/04 12:00:03;;;;;;;;;;;15.10;99.90;;;;;;4979195;28;991;-46
2022/02/04 12:02:30;;;;;;;;;;;15.10;99.90;;;;;;4962422;28;1056;-46
2022/02/04 12:07:57;;;;;;;;;;;15.00;99.90;;;;;;4999245;28;826;-56
2022/02/04 12:10:42;;;;;;;;;;;15.10;99.90;;;;;;4999213;28;1145;-55
2022/02/04 12:13:09;;;;;;;;;;;15.10;99.90;;;;;;4959708;29;927;-55
2022/02/04 12:15:37;;;;;;;;;;;15.10;99.90;;;;;;4943568;29;1006;-55
2022/02/04 12:18:10;;;;;;;;;;;15.10;99.90;;;;;;4927390;29;894;-55
2022/02/04 12:20:57;;;;;;;;;;;15.10;99.90;;;;;;4959401;29;1064;-55
2022/02/04 12:23:45;;;;;;;;;;;15.00;99.90;;;;;;4958594;29;1108;-55
2022/02/04 12:26:17;;;;;;;;;;;15.00;99.90;;;;;;4927334;29;863;-55
2022/02/04 12:28:44;;;;;;;;;;;15.00;99.90;;;;;;4956666;28;1043;-55
2022/02/04 12:31:14;;;;;;;;;;;15.00;99.90;;;;;;4999817;28;1906;-46
2022/02/04 12:33:40;;;;;;;;;;;15.00;99.90;;;;;;4977041;28;1148;-46
2022/02/04 12:36:15;;;;;;;;;;;15.00;99.90;;;;;;4998854;28;888;-47
2022/02/04 12:38:41;;;;;;;;;;;15.00;99.90;;;;;;4997877;28;874;-46
2022/02/04 12:41:09;;;;;;;;;;;15.00;99.90;;;;;;4965522;28;1903;-46
2022/02/04 12:43:36;;;;;;;;;;;15.00;99.90;;;;;;5014511;28;913;-46
2022/02/04 12:46:03;;;;;;;;;;;15.00;99.90;;;;;;5042007;28;1566;-46
2022/02/04 12:48:30;;;;;;;;;;;14.90;99.90;;;;;;5059540;28;766;-55
2022/02/04 12:51:01;;;;;;;;;;;14.90;99.90;;;;;;5042141;28;1898;-55
2022/02/04 12:53:31;;;;;;;;;;;14.90;99.90;;;;;;5026258;28;1342;-55
2022/02/04 12:56:06;;;;;;;;;;;14.90;99.90;;;;;;5059276;28;824;-55
2022/02/04 13:09:56;;;;;;;;;;;14.90;99.90;;;;;;5058334;28;857;-55
2022/02/04 13:12:22;;;;;;;;;;;14.90;99.90;;;;;;4991775;28;1898;-55
2022/02/04 13:14:49;;;;;;;;;;;14.90;99.90;;;;;;5059002;28;869;-55
2022/02/04 13:17:29;;;;;;;;;;;14.90;99.90;;;;;;5056934;28;854;-55
2022/02/04 13:19:56;;;;;;;;;;;14.80;99.90;;;;;;5057734;28;1167;-54
2022/02/04 13:22:22;;;;;;;;;;;14.80;99.90;;;;;;5058663;28;1235;-55
2022/02/04 13:25:07;;;;;;;;;;;14.80;99.90;;;;;;5058880;28;1233;-55
2022/02/04 13:27:35;;;;;;;;;;;14.80;99.90;;;;;;5058504;28;850;-47
2022/02/04 13:30:21;;;;;;;;;;;14.80;99.90;;;;;;5058572;28;904;-47
2022/02/04 13:32:47;;;;;;;;;;;14.80;99.90;;;;;;5007921;28;2056;-46
2022/02/04 13:35:28;;;;;;;;;;;14.80;99.90;;;;;;5055566;28;803;-47
2022/02/04 13:38:00;;;;;;;;;;;14.80;99.90;;;;;;5057811;28;836;-47
2022/02/04 13:40:50;;;;;;;;;;;14.80;99.90;;;;;;5040430;28;1069;-55
2022/02/04 13:43:20;;;;;;;;;;;14.80;99.90;;;;;;5058184;28;894;-55
2022/02/04 13:46:02;;;;;;;;;;;14.80;99.90;;;;;;5054022;28;916;-55
2022/02/04 13:48:42;;;;;;;;;;;14.80;99.90;;;;;;5026814;28;945;-55
2022/02/04 13:54:09;;;;;;;;;;;14.80;99.90;;;;;;5058206;28;790;-55
2022/02/04 13:56:48;;;;;;;;;;;14.70;99.90;;;;;;5058037;28;846;-55
2022/02/04 13:59:23;;;;;;;;;;;14.70;99.90;;;;;;5058286;28;793;-55
2022/02/04 14:01:57;;;;;;;;;;;14.70;99.90;;;;;;5058073;28;854;-55
2022/02/04 14:04:28;;;;;;;;;;;14.70;99.90;;;;;;5058268;28;745;-47
2022/02/04 14:07:11;;;;;;;;;;;14.70;99.90;;;;;;5038449;28;1481;-47
2022/02/04 14:09:45;;;;;;;;;;;14.70;99.90;;;;;;5036018;28;850;-46
2022/02/04 14:12:16;;;;;;;;;;;14.70;99.90;;;;;;5057914;28;1910;-47
2022/02/04 14:14:43;;;;;;;;;;;14.70;99.90;;;;;;5040281;28;902;-47
2022/02/04 14:17:10;;;;;;;;;;;14.70;99.90;;;;;;5058065;28;977;-46
2022/02/04 14:19:36;;;;;;;;;;;14.70;99.90;;;;;;5039869;28;992;-47
2022/02/04 14:22:05;;;;;;;;;;;14.60;99.90;;;;;;5019104;28;1233;-46
2022/02/04 14:24:31;;;;;;;;;;;14.60;99.90;;;;;;5020086;28;946;-46
2022/02/04 14:26:59;;;;;;;;;;;14.60;99.90;;;;;;5037731;28;1821;-46
2022/02/04 14:29:32;;;;;;;;;;;14.60;99.90;;;;;;5037290;28;877;-47
2022/02/04 14:32:05;;;;;;;;;;;14.60;99.90;;;;;;5037501;28;1963;-46
2022/02/04 14:35:03;;;;;;;;;;;14.60;99.90;;;;;;5035505;28;1021;-47
2022/02/04 14:51:47;;;;;;;;;;;14.60;99.90;;;;;;5037095;28;1910;-47
2022/02/04 14:54:47;;;;;;;;;;;14.60;99.90;;;;;;5037338;28;972;-55
2022/02/04 15:03:03;;;;;;;;;;;14.70;99.90;;;;;;5053833;28;924;-56
2022/02/04 15:05:38;;;;;;;;;;;14.70;99.90;;;;;;5054040;28;892;-55
2022/02/04 15:08:10;;;;;;;;;;;14.70;99.90;;;;;;5055389;28;741;-55
2022/02/04 15:10:39;;;;;;;;;;;14.70;99.90;;;;;;5037282;28;856;-56
2022/02/04 15:13:13;;;;;;;;;;;14.70;99.90;;;;;;5037101;28;1902;-55
2022/02/04 15:15:41;;;;;;;;;;;14.70;99.90;;;;;;5055302;28;765;-56
2022/02/04 15:18:08;;;;;;;;;;;14.70;99.90;;;;;;5044038;28;823;-55
2022/02/04 15:20:37;;;;;;;;;;;14.70;99.90;;;;;;5020509;28;1045;-55
2022/02/04 15:23:03;;;;;;;;;;;14.70;99.90;;;;;;5056619;28;735;-55
2022/02/04 15:25:29;;;;;;;;;;;14.70;99.90;;;;;;4989065;28;1083;-56
2022/02/04 15:30:43;;;;;;;;;;;14.70;99.90;;;;;;5038574;28;978;-55
2022/02/04 15:33:10;;;;;;;;;;;14.70;99.90;;;;;;5038290;28;2088;-55
2022/02/04 15:35:37;;;;;;;;;;;14.60;99.90;;;;;;5056165;28;818;-56
2022/02/04 15:38:04;;;;;;;;;;;14.60;99.90;;;;;;5056452;28;1018;-55
2022/02/04 15:40:32;;;;;;;;;;;14.60;99.90;;;;;;5001158;28;924;-56
2022/02/04 15:43:01;;;;;;;;;;;14.60;99.90;;;;;;5053954;28;1027;-55
2022/02/04 16:04:04;;;;;;;;;;;14.50;99.90;;;;;;5041894;28;878;-54
2022/02/04 16:06:30;;;;;;;;;;;14.50;99.90;;;;;;5056174;28;901;-55
2022/02/04 16:08:58;;;;;;;;;;;14.50;99.90;;;;;;5055960;28;856;-55
2022/02/04 16:11:45;;;;;;;;;;;14.40;99.90;;;;;;5055662;28;1972;-54
2022/02/04 16:14:20;;;;;;;;;;;14.50;99.90;;;;;;5056261;28;1026;-54
2022/02/04 16:16:58;;;;;;;;;;;14.50;99.90;;;;;;5056077;28;1492;-54
2022/02/04 16:19:35;;;;;;;;;;;14.40;99.90;;;;;;5039571;28;936;-55
2022/02/04 16:29:56;;;;;;;;;;;14.50;99.90;;;;;;5074468;28;813;-55
2022/02/04 16:32:24;;;;;;;;;;;14.50;99.90;;;;;;5056453;28;1980;-54
2022/02/04 16:34:54;;;;;;;;;;;14.60;99.90;;;;;;5039665;28;988;-54
2022/02/04 16:37:33;;;;;;;;;;;14.60;99.90;;;;;;5055460;28;811;-54
2022/02/04 16:40:14;;;;;;;;;;;14.60;99.90;;;;;;5038149;28;938;-54
2022/02/04 16:43:03;;;;;;;;;;;14.60;99.90;;;;;;5054046;28;700;-54
2022/02/04 16:45:29;;;;;;;;;;;14.60;99.90;;;;;;5056212;28;794;-54
2022/02/04 16:47:57;;;;;;;;;;;14.60;99.90;;;;;;5056080;28;860;-54
2022/02/04 16:50:31;;;;;;;;;;;14.60;99.90;;;;;;5055191;28;935;-54
2022/02/04 16:52:57;;;;;;;;;;;14.70;99.90;;;;;;5058807;28;1963;-54
2022/02/04 16:55:24;;;;;;;;;;;14.70;99.90;;;;;;5058613;28;1289;-54
2022/02/04 16:57:50;;;;;;;;;;;14.70;99.90;;;;;;5059460;28;902;-54
2022/02/04 17:00:23;;;;;;;;;;;14.70;99.90;;;;;;5059326;28;1014;-54
2022/02/04 17:02:51;;;;;;;;;;;14.70;99.90;;;;;;5058307;28;1443;-55
2022/02/04 17:05:22;;;;;;;;;;;14.70;99.90;;;;;;5059796;28;927;-54
2022/02/04 17:07:55;;;;;;;;;;;14.60;99.90;;;;;;5059101;28;779;-46
2022/02/04 17:10:29;;;;;;;;;;;14.60;99.90;;;;;;5058055;28;993;-46
2022/02/04 17:13:00;;;;;;;;;;;14.60;99.90;;;;;;5058834;28;1906;-46
2022/02/04 17:15:41;;;;;;;;;;;14.60;99.90;;;;;;5024410;28;961;-46
2022/02/04 17:18:08;;;;;;;;;;;14.60;99.90;;;;;;5041877;28;1145;-46
2022/02/04 17:20:34;;;;;;;;;;;14.60;99.90;;;;;;5039936;28;1132;-46
2022/02/04 17:23:04;;;;;;;;;;;14.60;99.90;;;;;;5058815;28;1368;-46
2022/02/04 17:25:33;;;;;;;;;;;14.60;99.90;;;;;;5064454;28;874;-45
2022/02/04 17:28:00;;;;;;;;;;;14.50;99.90;;;;;;5058772;28;872;-46
2022/02/04 17:30:28;;;;;;;;;;;14.50;99.90;;;;;;5058661;28;780;-46
2022/02/04 17:32:56;;;;;;;;;;;14.50;99.90;;;;;;5024257;28;1906;-46
2022/02/04 17:35:27;;;;;;;;;;;14.50;99.90;;;;;;5007487;28;963;-46
2022/02/04 17:37:57;;;;;;;;;;;14.50;99.90;;;;;;5057153;28;892;-46
2022/02/04 17:40:24;;;;;;;;;;;14.50;99.90;;;;;;5040135;28;885;-46
2022/02/04 17:42:51;;;;;;;;;;;14.40;99.90;;;;;;5057722;28;770;-53
2022/02/04 17:45:21;;;;;;;;;;;14.40;99.90;;;;;;5039724;28;1001;-53
2022/02/04 17:48:04;;;;;;;;;;;14.40;99.90;;;;;;5058339;28;872;-53
2022/02/04 17:50:40;;;;;;;;;;;14.40;99.90;;;;;;5026843;28;980;-54
2022/02/04 17:53:16;;;;;;;;;;;14.40;99.90;;;;;;5058085;28;1965;-54
2022/02/04 17:55:48;;;;;;;;;;;14.30;99.90;;;;;;5023584;28;1118;-54
2022/02/04 18:09:16;;;;;;;;;;;14.40;99.90;;;;;;5054007;28;762;-46
2022/02/04 18:11:48;;;;;;;;;;;14.40;99.90;;;;;;5057511;28;1890;-46
2022/02/04 18:14:15;;;;;;;;;;;14.40;99.90;;;;;;5058220;28;768;-46
2022/02/04 18:16:42;;;;;;;;;;;14.40;99.90;;;;;;5057679;28;981;-46
2022/02/04 18:19:09;;;;;;;;;;;14.40;99.90;;;;;;5056773;28;807;-46
2022/02/04 18:21:37;;;;;;;;;;;14.40;99.90;;;;;;5057192;28;1272;-54
2022/02/04 18:24:05;;;;;;;;;;;14.40;99.90;;;;;;5057115;28;967;-53
2022/02/04 18:26:31;;;;;;;;;;;14.40;99.90;;;;;;5057774;28;851;-54
2022/02/04 18:28:59;;;;;;;;;;;14.40;99.90;;;;;;5057985;28;781;-53
2022/02/04 18:31:29;;;;;;;;;;;14.40;99.90;;;;;;5056992;28;905;-53
2022/02/04 18:33:57;;;;;;;;;;;14.50;99.90;;;;;;5057564;28;1969;-54
2022/02/04 18:36:30;;;;;;;;;;;14.50;99.90;;;;;;5057469;28;814;-53
2022/02/04 18:39:12;;;;;;;;;;;14.50;99.90;;;;;;5057380;28;913;-54
2022/02/04 18:44:24;;;;;;;;;;;14.50;99.90;;;;;;5057245;28;1696;-54
2022/02/04 18:46:56;;;;;;;;;;;14.50;99.90;;;;;;5074967;28;1716;-54
2022/02/04 18:49:29;;;;;;;;;;;14.60;99.90;;;;;;5075258;28;1022;-54
2022/02/04 18:52:07;;;;;;;;;;;14.60;99.90;;;;;;5075049;28;1902;-54
2022/02/04 19:00:10;;;;;;;;;;;14.60;99.90;;;;;;5057628;28;865;-54
2022/02/04 19:02:39;;;;;;;;;;;14.60;99.90;;;;;;5075039;28;881;-54
2022/02/04 19:05:09;;;;;;;;;;;14.60;99.90;;;;;;5057896;28;804;-54
2022/02/04 19:07:55;;;;;;;;;;;14.50;99.90;;;;;;5022379;28;975;-54
2022/02/04 19:10:22;;;;;;;;;;;14.50;99.90;;;;;;5042058;28;1161;-54
2022/02/04 19:13:04;;;;;;;;;;;14.50;99.90;;;;;;5021452;28;1899;-54
2022/02/04 19:16:00;;;;;;;;;;;14.50;99.90;;;;;;5057047;28;754;-54
2022/02/04 19:18:38;;;;;;;;;;;14.50;99.90;;;;;;5056689;28;1287;-54
2022/02/04 19:21:14;;;;;;;;;;;14.40;99.90;;;;;;5023157;28;1118;-46
2022/02/04 19:23:52;;;;;;;;;;;14.40;99.90;;;;;;5022327;28;1049;-46
2022/02/04 19:26:25;;;;;;;;;;;14.40;99.90;;;;;;5022200;28;968;-46
2022/02/04 19:28:54;;;;;;;;;;;14.40;99.90;;;;;;5056039;28;886;-46
2022/02/04 19:31:21;;;;;;;;;;;14.40;99.90;;;;;;5047647;28;1041;-46
2022/02/04 19:33:48;;;;;;;;;;;14.40;99.90;;;;;;5051148;28;1977;-46
2022/02/04 19:36:15;;;;;;;;;;;14.40;99.90;;;;;;5051161;28;893;-46
2022/02/04 19:38:42;;;;;;;;;;;14.30;99.90;;;;;;5055113;28;1060;-46
2022/02/04 19:41:13;;;;;;;;;;;14.30;99.90;;;;;;5021685;28;1084;-46
2022/02/04 19:43:43;;;;;;;;;;;14.30;99.90;;;;;;5051222;28;792;-46
2022/02/04 19:46:21;;;;;;;;;;;14.30;99.90;;;;;;5056772;28;884;-46
2022/02/04 19:48:51;;;;;;;;;;;14.30;99.90;;;;;;5056540;28;796;-46
2022/02/04 20:13:08;;;;;;;;;;;14.30;99.90;;;;;;5021577;28;975;-46
2022/02/04 20:26:55;;;;;;;;;;;14.50;99.90;;;;;;5016672;28;971;-54
2022/02/04 20:29:21;;;;;;;;;;;14.50;99.90;;;;;;5018169;28;948;-54
2022/02/04 20:31:48;;;;;;;;;;;14.50;99.90;;;;;;5018672;28;830;-54
2022/02/04 20:34:16;;;;;;;;;;;14.50;99.90;;;;;;5002003;28;1956;-54
2022/02/04 20:36:45;;;;;;;;;;;14.50;99.90;;;;;;5017678;28;1116;-54
2022/02/04 20:39:16;;;;;;;;;;;14.50;99.90;;;;;;5018071;28;954;-54
2022/02/04 20:41:42;;;;;;;;;;;14.50;99.90;;;;;;5017816;28;835;-53
2022/02/04 20:44:09;;;;;;;;;;;14.50;99.90;;;;;;5018231;28;790;-53
2022/02/04 20:46:38;;;;;;;;;;;14.50;99.90;;;;;;5017963;28;1140;-46
2022/02/04 20:49:08;;;;;;;;;;;14.40;99.90;;;;;;5034861;28;971;-46
2022/02/04 20:51:34;;;;;;;;;;;14.50;99.90;;;;;;5035817;28;833;-47
2022/02/04 20:54:02;;;;;;;;;;;14.40;99.90;;;;;;5062100;28;1906;-46
2022/02/04 20:56:29;;;;;;;;;;;14.40;99.90;;;;;;5041253;28;843;-46
2022/02/04 20:59:01;;;;;;;;;;;14.40;99.90;;;;;;5059351;28;1046;-46
2022/02/04 21:01:28;;;;;;;;;;;14.40;99.90;;;;;;5059135;28;1104;-46
2022/02/04 21:03:58;;;;;;;;;;;14.40;99.90;;;;;;5058792;28;944;-46
2022/02/04 21:06:31;;;;;;;;;;;14.30;99.90;;;;;;5059296;28;857;-46
2022/02/04 21:09:30;;;;;;;;;;;14.30;99.90;;;;;;5059389;28;826;-46
2022/02/04 21:16:58;;;;;;;;;;;14.30;99.90;;;;;;5058996;28;779;-46
2022/02/04 21:19:25;;;;;;;;;;;14.30;99.90;;;;;;5059216;28;767;-46
2022/02/04 21:21:51;;;;;;;;;;;14.20;99.90;;;;;;5019875;28;1165;-46
2022/02/04 21:24:18;;;;;;;;;;;14.20;99.90;;;;;;5038895;28;800;-48
2022/02/04 21:26:45;;;;;;;;;;;14.20;99.90;;;;;;5038836;28;813;-48
2022/02/04 21:29:12;;;;;;;;;;;14.20;99.90;;;;;;5038861;28;1126;-48
2022/02/04 21:31:42;;;;;;;;;;;14.20;99.90;;;;;;5038852;28;825;-48
2022/02/04 21:37:06;;;;;;;;;;;14.20;99.90;;;;;;4977874;28;1066;-46
2022/02/04 21:39:33;;;;;;;;;;;14.30;99.90;;;;;;4929338;28;1027;-45
2022/02/04 21:42:00;;;;;;;;;;;14.30;99.90;;;;;;4977393;28;954;-46
2022/02/04 21:44:27;;;;;;;;;;;14.30;99.90;;;;;;4976149;28;798;-46
2022/02/04 21:46:55;;;;;;;;;;;14.30;99.90;;;;;;4975971;28;935;-45
2022/02/04 21:49:37;;;;;;;;;;;14.30;99.90;;;;;;4977922;28;1112;-46
2022/02/04 21:52:04;;;;;;;;;;;14.40;99.90;;;;;;4977931;28;1969;-47
2022/02/04 21:54:32;;;;;;;;;;;14.40;99.90;;;;;;4929996;28;919;-48
2022/02/04 21:56:58;;;;;;;;;;;14.40;99.90;;;;;;4977740;28;842;-48
2022/02/04 21:59:26;;;;;;;;;;;14.40;99.90;;;;;;4977863;28;952;-48
2022/02/04 22:01:54;;;;;;;;;;;14.40;99.90;;;;;;4977767;28;1028;-48
2022/02/04 22:04:20;;;;;;;;;;;14.40;99.90;;;;;;4977895;28;1058;-47
2022/02/04 22:06:46;;;;;;;;;;;14.30;99.90;;;;;;4977737;28;971;-48
2022/02/04 22:17:55;;;;;;;;;;;14.30;99.90;;;;;;5036576;28;927;-48
2022/02/04 22:22:58;;;;;;;;;;;14.20;99.90;;;;;;5036181;28;1191;-48
2022/02/04 22:25:28;;;;;;;;;;;14.20;99.90;;;;;;5037768;28;837;-47